sensor_id;sensor_type;location;lat;lon;timestamp;pressure;altitude;pressure_sealevel;temperature;humidity
79453;BME280;68899;52.116;5.404;2023-08-17T00:01:16;102194.31;;;22.87;57.83
79453;BME280;68899;52.116;5.404;2023-08-17T00:03:43;102201.53;;;22.86;57.88
79453;BME280;68899;52.116;5.404;2023-08-17T00:06:09;102199.69;;;22.87;57.38
79453;BME280;68899;52.116;5.404;2023-08-17T00:08:36;102200.69;;;22.86;58.33
79453;BME280;68899;52.116;5.404;2023-08-17T00:11:02;102203.38;;;22.86;57.68
79453;BME280;68899;52.116;5.404;2023-08-17T00:13:29;102196.16;;;22.86;57.79
79453;BME280;68899;52.116;5.404;2023-08-17T00:15:55;102201.53;;;22.86;57.88
79453;BME280;68899;52.116;5.404;2023-08-17T00:18:22;102194.56;;;22.83;57.69
79453;BME280;68899;52.116;5.404;2023-08-17T00:20:49;102201.75;;;22.83;57.73
79453;BME280;68899;52.116;5.404;2023-08-17T00:23:16;102199.91;;;22.83;57.64
79453;BME280;68899;52.116;5.404;2023-08-17T00:25:42;102199.06;;;22.83;57.57
79453;BME280;68899;52.116;5.404;2023-08-17T00:28:09;102190.31;;;22.81;57.94
79453;BME280;68899;52.116;5.404;2023-08-17T00:30:35;102197.38;;;22.82;57.79
79453;BME280;68899;52.116;5.404;2023-08-17T00:33:05;102195.84;;;22.79;57.59
79453;BME280;68899;52.116;5.404;2023-08-17T00:35:31;102200.38;;;22.79;57.78
79453;BME280;68899;52.116;5.404;2023-08-17T00:37:59;102194.16;;;22.78;58.00
79453;BME280;68899;52.116;5.404;2023-08-17T00:40:25;102195.13;;;22.77;58.02
79453;BME280;68899;52.116;5.404;2023-08-17T00:42:53;102194.28;;;22.77;58.29
79453;BME280;68899;52.116;5.404;2023-08-17T00:45:21;102186.34;;;22.75;58.18
79453;BME280;68899;52.116;5.404;2023-08-17T00:47:48;102185.50;;;22.75;58.04
79453;BME280;68899;52.116;5.404;2023-08-17T00:50:15;102175.78;;;22.74;58.06
79453;BME280;68899;52.116;5.404;2023-08-17T00:52:42;102183.81;;;22.74;58.03
79453;BME280;68899;52.116;5.404;2023-08-17T00:55:10;102192.88;;;22.73;58.26
79453;BME280;68899;52.116;5.404;2023-08-17T00:57:37;102185.81;;;22.72;58.16
79453;BME280;68899;52.116;5.404;2023-08-17T01:00:06;102185.81;;;22.72;57.96
79453;BME280;68899;52.116;5.404;2023-08-17T01:02:34;102182.13;;;22.73;57.87
79453;BME280;68899;52.116;5.404;2023-08-17T01:05:01;102186.81;;;22.71;58.19
79453;BME280;68899;52.116;5.404;2023-08-17T01:07:28;102179.59;;;22.71;58.11
79453;BME280;68899;52.116;5.404;2023-08-17T01:09:55;102184.13;;;22.71;57.99
79453;BME280;68899;52.116;5.404;2023-08-17T01:12:31;102188.50;;;22.72;57.92
79453;BME280;68899;52.116;5.404;2023-08-17T01:15:14;102184.97;;;22.71;58.23
79453;BME280;68899;52.116;5.404;2023-08-17T01:17:57;102189.63;;;22.69;57.71
79453;BME280;68899;52.116;5.404;2023-08-17T01:20:24;102191.47;;;22.69;58.32
79453;BME280;68899;52.116;5.404;2023-08-17T01:22:52;102181.72;;;22.68;58.23
79453;BME280;68899;52.116;5.404;2023-08-17T01:25:23;102171.97;;;22.67;58.02
79453;BME280;68899;52.116;5.404;2023-08-17T01:27:50;102175.38;;;22.69;58.22
79453;BME280;68899;52.116;5.404;2023-08-17T01:30:17;102171.97;;;22.67;58.26
79453;BME280;68899;52.116;5.404;2023-08-17T01:32:52;102164.91;;;22.66;58.27
79453;BME280;68899;52.116;5.404;2023-08-17T01:35:30;102171.25;;;22.65;58.27
79453;BME280;68899;52.116;5.404;2023-08-17T01:38:02;102167.72;;;22.64;58.13
79453;BME280;68899;52.116;5.404;2023-08-17T01:40:32;102180.16;;;22.65;58.20
79453;BME280;68899;52.116;5.404;2023-08-17T01:43:01;102174.94;;;22.64;58.30
79453;BME280;68899;52.116;5.404;2023-08-17T01:45:28;102172.25;;;22.64;58.42
79453;BME280;68899;52.116;5.404;2023-08-17T01:47:55;102170.56;;;22.63;58.06
79453;BME280;68899;52.116;5.404;2023-08-17T01:50:22;102170.72;;;22.61;58.00
79453;BME280;68899;52.116;5.404;2023-08-17T01:52:48;102160.81;;;22.62;58.19
79453;BME280;68899;52.116;5.404;2023-08-17T01:55:17;102159.00;;;22.62;58.29
79453;BME280;68899;52.116;5.404;2023-08-17T01:57:44;102162.66;;;22.61;58.37
79453;BME280;68899;52.116;5.404;2023-08-17T02:00:10;102160.97;;;22.60;58.18
79453;BME280;68899;52.116;5.404;2023-08-17T02:02:37;102158.28;;;22.60;58.42
79453;BME280;68899;52.116;5.404;2023-08-17T02:05:04;102156.59;;;22.59;58.35
79453;BME280;68899;52.116;5.404;2023-08-17T02:07:31;102158.28;;;22.60;58.39
79453;BME280;68899;52.116;5.404;2023-08-17T02:09:57;102157.56;;;22.58;58.19
79453;BME280;68899;52.116;5.404;2023-08-17T02:12:23;102160.25;;;22.58;58.43
79453;BME280;68899;52.116;5.404;2023-08-17T02:14:50;102166.44;;;22.58;58.43
79453;BME280;68899;52.116;5.404;2023-08-17T02:17:16;102160.25;;;22.58;58.48
79453;BME280;68899;52.116;5.404;2023-08-17T02:19:45;102169.28;;;22.57;58.13
79453;BME280;68899;52.116;5.404;2023-08-17T02:22:14;102175.63;;;22.56;58.31
79453;BME280;68899;52.116;5.404;2023-08-17T02:24:41;102177.47;;;22.55;58.51
79453;BME280;68899;52.116;5.404;2023-08-17T02:27:09;102170.25;;;22.56;58.57
79453;BME280;68899;52.116;5.404;2023-08-17T02:29:36;102164.91;;;22.56;58.59
79453;BME280;68899;52.116;5.404;2023-08-17T02:32:02;102164.06;;;22.55;58.79
79453;BME280;68899;52.116;5.404;2023-08-17T02:34:29;102172.09;;;22.55;58.53
79453;BME280;68899;52.116;5.404;2023-08-17T02:36:55;102166.88;;;22.54;58.48
79453;BME280;68899;52.116;5.404;2023-08-17T02:39:22;102165.06;;;22.54;58.38
79453;BME280;68899;52.116;5.404;2023-08-17T02:41:49;102155.31;;;22.53;58.33
79453;BME280;68899;52.116;5.404;2023-08-17T02:44:16;102157.16;;;22.53;58.17
79453;BME280;68899;52.116;5.404;2023-08-17T02:46:42;102152.63;;;22.53;58.67
79453;BME280;68899;52.116;5.404;2023-08-17T02:49:09;102147.41;;;22.52;58.42
79453;BME280;68899;52.116;5.404;2023-08-17T02:51:35;102149.09;;;22.53;58.45
79453;BME280;68899;52.116;5.404;2023-08-17T02:54:02;102151.78;;;22.53;58.58
79453;BME280;68899;52.116;5.404;2023-08-17T02:56:28;102145.72;;;22.51;58.54
79453;BME280;68899;52.116;5.404;2023-08-17T02:58:55;102144.88;;;22.50;58.59
79453;BME280;68899;52.116;5.404;2023-08-17T03:01:21;102144.00;;;22.50;58.28
79453;BME280;68899;52.116;5.404;2023-08-17T03:03:48;102138.78;;;22.48;58.54
79453;BME280;68899;52.116;5.404;2023-08-17T03:06:15;102144.00;;;22.50;58.83
79453;BME280;68899;52.116;5.404;2023-08-17T03:08:41;102145.00;;;22.49;58.43
79453;BME280;68899;52.116;5.404;2023-08-17T03:11:08;102141.47;;;22.48;58.37
79453;BME280;68899;52.116;5.404;2023-08-17T03:13:36;102145.13;;;22.47;58.35
79453;BME280;68899;52.116;5.404;2023-08-17T03:16:02;102140.75;;;22.46;58.45
79453;BME280;68899;52.116;5.404;2023-08-17T03:18:29;102144.44;;;22.45;58.39
79453;BME280;68899;52.116;5.404;2023-08-17T03:20:55;102140.06;;;22.44;58.48
79453;BME280;68899;52.116;5.404;2023-08-17T03:23:22;102139.06;;;22.45;58.92
79453;BME280;68899;52.116;5.404;2023-08-17T03:25:54;102137.38;;;22.44;58.69
79453;BME280;68899;52.116;5.404;2023-08-17T03:28:20;102137.38;;;22.44;58.60
79453;BME280;68899;52.116;5.404;2023-08-17T03:30:47;102138.53;;;22.42;58.41
79453;BME280;68899;52.116;5.404;2023-08-17T03:33:13;102129.59;;;22.41;58.46
79453;BME280;68899;52.116;5.404;2023-08-17T03:35:40;102134.13;;;22.41;58.55
79453;BME280;68899;52.116;5.404;2023-08-17T03:38:06;102139.47;;;22.41;58.37
79453;BME280;68899;52.116;5.404;2023-08-17T03:40:33;102136.78;;;22.41;58.27
79453;BME280;68899;52.116;5.404;2023-08-17T03:42:59;102127.91;;;22.40;58.52
79453;BME280;68899;52.116;5.404;2023-08-17T03:45:26;102137.66;;;22.41;58.89
79453;BME280;68899;52.116;5.404;2023-08-17T03:47:53;102133.28;;;22.40;58.71
79453;BME280;68899;52.116;5.404;2023-08-17T03:50:20;102124.38;;;22.40;58.31
79453;BME280;68899;52.116;5.404;2023-08-17T03:52:46;102131.44;;;22.41;58.49
79453;BME280;68899;52.116;5.404;2023-08-17T03:55:13;102132.56;;;22.38;58.40
79453;BME280;68899;52.116;5.404;2023-08-17T03:57:39;102131.72;;;22.38;58.53
79453;BME280;68899;52.116;5.404;2023-08-17T04:00:06;102136.38;;;22.36;58.80
79453;BME280;68899;52.116;5.404;2023-08-17T04:02:33;102129.19;;;22.36;58.50
79453;BME280;68899;52.116;5.404;2023-08-17T04:05:00;102128.34;;;22.36;58.75
79453;BME280;68899;52.116;5.404;2023-08-17T04:07:26;102132.72;;;22.37;58.49
79453;BME280;68899;52.116;5.404;2023-08-17T04:09:53;102138.06;;;22.37;58.32
79453;BME280;68899;52.116;5.404;2023-08-17T04:12:20;102141.75;;;22.36;58.57
79453;BME280;68899;52.116;5.404;2023-08-17T04:14:46;102141.06;;;22.34;58.82
79453;BME280;68899;52.116;5.404;2023-08-17T04:17:13;102136.53;;;22.34;58.54
79453;BME280;68899;52.116;5.404;2023-08-17T04:19:39;102141.91;;;22.34;58.49
79453;BME280;68899;52.116;5.404;2023-08-17T04:22:06;102135.69;;;22.34;58.49
79453;BME280;68899;52.116;5.404;2023-08-17T04:24:32;102141.91;;;22.34;58.48
79453;BME280;68899;52.116;5.404;2023-08-17T04:26:59;102134.94;;;22.32;58.27
79453;BME280;68899;52.116;5.404;2023-08-17T04:29:26;102138.47;;;22.32;58.46
79453;BME280;68899;52.116;5.404;2023-08-17T04:31:53;102132.28;;;22.32;58.80
79453;BME280;68899;52.116;5.404;2023-08-17T04:34:20;102129.75;;;22.30;58.30
79453;BME280;68899;52.116;5.404;2023-08-17T04:36:46;102127.91;;;22.31;58.32
79453;BME280;68899;52.116;5.404;2023-08-17T04:39:13;102125.38;;;22.29;58.35
79453;BME280;68899;52.116;5.404;2023-08-17T04:41:39;102129.88;;;22.28;58.43
79453;BME280;68899;52.116;5.404;2023-08-17T04:44:06;102125.50;;;22.27;58.46
79453;BME280;68899;52.116;5.404;2023-08-17T04:46:32;102129.03;;;22.28;58.38
79453;BME280;68899;52.116;5.404;2023-08-17T04:48:58;102129.03;;;22.28;58.38
79453;BME280;68899;52.116;5.404;2023-08-17T04:51:25;102126.34;;;22.28;58.43
79453;BME280;68899;52.116;5.404;2023-08-17T04:53:52;102122.69;;;22.29;58.65
79453;BME280;68899;52.116;5.404;2023-08-17T04:56:20;102125.38;;;22.29;58.43
79453;BME280;68899;52.116;5.404;2023-08-17T04:58:46;102125.50;;;22.27;58.48
79453;BME280;68899;52.116;5.404;2023-08-17T05:01:13;102124.66;;;22.27;58.45
79453;BME280;68899;52.116;5.404;2023-08-17T05:03:39;102124.66;;;22.27;58.37
79453;BME280;68899;52.116;5.404;2023-08-17T05:06:07;102128.19;;;22.27;58.81
79453;BME280;68899;52.116;5.404;2023-08-17T05:08:33;102127.34;;;22.27;58.44
79453;BME280;68899;52.116;5.404;2023-08-17T05:11:00;102119.31;;;22.27;58.36
79453;BME280;68899;52.116;5.404;2023-08-17T05:13:26;102114.09;;;22.25;58.21
79453;BME280;68899;52.116;5.404;2023-08-17T05:15:53;102114.09;;;22.25;58.25
79453;BME280;68899;52.116;5.404;2023-08-17T05:18:19;102111.41;;;22.25;58.15
79453;BME280;68899;52.116;5.404;2023-08-17T05:20:46;102116.78;;;22.25;58.03
79453;BME280;68899;52.116;5.404;2023-08-17T05:23:12;102111.53;;;22.24;58.05
79453;BME280;68899;52.116;5.404;2023-08-17T05:25:39;102120.69;;;22.21;58.38
79453;BME280;68899;52.116;5.404;2023-08-17T05:28:05;102122.38;;;22.22;59.42
79453;BME280;68899;52.116;5.404;2023-08-17T05:30:32;102116.88;;;22.24;60.95
79453;BME280;68899;52.116;5.404;2023-08-17T05:32:59;102121.41;;;22.23;60.76
79453;BME280;68899;52.116;5.404;2023-08-17T05:35:26;102121.53;;;22.22;59.61
79453;BME280;68899;52.116;5.404;2023-08-17T05:37:53;102120.00;;;22.19;59.18
79453;BME280;68899;52.116;5.404;2023-08-17T05:40:19;102121.97;;;22.17;59.01
79453;BME280;68899;52.116;5.404;2023-08-17T05:42:46;102123.97;;;22.15;58.65
79453;BME280;68899;52.116;5.404;2023-08-17T05:45:12;102117.72;;;22.15;58.55
79453;BME280;68899;52.116;5.404;2023-08-17T05:47:39;102116.16;;;22.12;57.75
79453;BME280;68899;52.116;5.404;2023-08-17T05:50:06;102118.16;;;22.10;57.51
79453;BME280;68899;52.116;5.404;2023-08-17T05:52:33;102121.81;;;22.09;57.27
79453;BME280;68899;52.116;5.404;2023-08-17T05:54:59;102121.97;;;22.08;56.79
79453;BME280;68899;52.116;5.404;2023-08-17T05:57:26;102120.50;;;22.04;57.09
79453;BME280;68899;52.116;5.404;2023-08-17T05:59:53;102125.31;;;22.00;56.96
79453;BME280;68899;52.116;5.404;2023-08-17T06:02:19;102122.88;;;21.97;57.08
79453;BME280;68899;52.116;5.404;2023-08-17T06:04:47;102131.06;;;21.95;56.99
79453;BME280;68899;52.116;5.404;2023-08-17T06:07:14;102138.53;;;21.92;57.34
79453;BME280;68899;52.116;5.404;2023-08-17T06:09:41;102142.34;;;21.89;57.64
79453;BME280;68899;52.116;5.404;2023-08-17T06:12:07;102148.81;;;21.87;57.49
79453;BME280;68899;52.116;5.404;2023-08-17T06:14:34;102149.09;;;21.84;57.27
79453;BME280;68899;52.116;5.404;2023-08-17T06:17:00;102153.44;;;21.85;57.84
79453;BME280;68899;52.116;5.404;2023-08-17T06:19:27;102155.00;;;21.87;57.99
79453;BME280;68899;52.116;5.404;2023-08-17T06:21:53;102152.06;;;21.90;58.15
79453;BME280;68899;52.116;5.404;2023-08-17T06:24:20;102158.84;;;21.94;58.33
79453;BME280;68899;52.116;5.404;2023-08-17T06:26:46;102153.19;;;21.97;58.31
79453;BME280;68899;52.116;5.404;2023-08-17T06:29:13;102149.28;;;22.01;58.68
79453;BME280;68899;52.116;5.404;2023-08-17T06:31:39;102162.38;;;22.05;58.23
79453;BME280;68899;52.116;5.404;2023-08-17T06:34:06;102160.34;;;22.08;58.41
79453;BME280;68899;52.116;5.404;2023-08-17T06:36:32;102159.06;;;22.12;58.41
79453;BME280;68899;52.116;5.404;2023-08-17T06:38:59;102158.06;;;22.13;58.30
79453;BME280;68899;52.116;5.404;2023-08-17T06:41:25;102154.41;;;22.14;58.31
79453;BME280;68899;52.116;5.404;2023-08-17T06:43:53;102159.50;;;22.17;58.46
79453;BME280;68899;52.116;5.404;2023-08-17T06:46:20;102153.16;;;22.18;58.36
79453;BME280;68899;52.116;5.404;2023-08-17T06:48:46;102155.69;;;22.20;58.20
79453;BME280;68899;52.116;5.404;2023-08-17T06:51:13;102165.28;;;22.22;58.63
79453;BME280;68899;52.116;5.404;2023-08-17T06:53:40;102158.94;;;22.23;58.41
79453;BME280;68899;52.116;5.404;2023-08-17T06:56:09;102161.59;;;22.23;58.39
79453;BME280;68899;52.116;5.404;2023-08-17T06:58:35;102162.47;;;22.24;58.35
79453;BME280;68899;52.116;5.404;2023-08-17T07:01:02;102156.00;;;22.26;58.41
79453;BME280;68899;52.116;5.404;2023-08-17T07:03:28;102163.19;;;22.26;58.21
79453;BME280;68899;52.116;5.404;2023-08-17T07:05:55;102165.72;;;22.27;58.34
79453;BME280;68899;52.116;5.404;2023-08-17T07:08:21;102167.41;;;22.28;58.35
79453;BME280;68899;52.116;5.404;2023-08-17T07:10:48;102166.56;;;22.28;58.35
79453;BME280;68899;52.116;5.404;2023-08-17T07:13:14;102159.38;;;22.28;58.20
79453;BME280;68899;52.116;5.404;2023-08-17T07:15:40;102157.53;;;22.29;58.31
79453;BME280;68899;52.116;5.404;2023-08-17T07:18:07;102161.91;;;22.30;58.23
79453;BME280;68899;52.116;5.404;2023-08-17T07:20:33;102159.22;;;22.30;58.31
79453;BME280;68899;52.116;5.404;2023-08-17T07:23:00;102166.28;;;22.31;58.22
79453;BME280;68899;52.116;5.404;2023-08-17T07:25:26;102158.97;;;22.33;58.59
79453;BME280;68899;52.116;5.404;2023-08-17T07:27:54;102159.81;;;22.34;58.21
79453;BME280;68899;52.116;5.404;2023-08-17T07:30:21;102164.19;;;22.35;57.62
79453;BME280;68899;52.116;5.404;2023-08-17T07:32:47;102164.03;;;22.36;57.65
79453;BME280;68899;52.116;5.404;2023-08-17T07:35:14;102167.44;;;22.38;57.95
79453;BME280;68899;52.116;5.404;2023-08-17T07:37:40;102162.91;;;22.39;58.11
79453;BME280;68899;52.116;5.404;2023-08-17T07:40:08;102169.72;;;22.43;58.18
79453;BME280;68899;52.116;5.404;2023-08-17T07:42:36;102164.06;;;22.46;58.25
79453;BME280;68899;52.116;5.404;2023-08-17T07:45:03;102158.53;;;22.47;58.39
79453;BME280;68899;52.116;5.404;2023-08-17T07:47:35;102163.66;;;22.50;58.29
79453;BME280;68899;52.116;5.404;2023-08-17T07:50:05;102157.16;;;22.53;58.09
79453;BME280;68899;52.116;5.404;2023-08-17T07:52:32;102162.22;;;22.56;57.96
79453;BME280;68899;52.116;5.404;2023-08-17T07:54:58;102161.38;;;22.55;57.69
79453;BME280;68899;52.116;5.404;2023-08-17T07:57:25;102167.59;;;22.56;58.06
79453;BME280;68899;52.116;5.404;2023-08-17T07:59:52;102169.00;;;22.60;58.16
79453;BME280;68899;52.116;5.404;2023-08-17T08:02:20;102165.88;;;22.65;58.13
79453;BME280;68899;52.116;5.404;2023-08-17T08:04:47;102165.63;;;22.68;58.01
79453;BME280;68899;52.116;5.404;2023-08-17T08:07:13;102169.84;;;22.70;58.13
79453;BME280;68899;52.116;5.404;2023-08-17T08:09:40;102169.72;;;22.72;57.83
79453;BME280;68899;52.116;5.404;2023-08-17T08:12:06;102167.72;;;22.74;58.02
79453;BME280;68899;52.116;5.404;2023-08-17T08:14:35;102160.53;;;22.74;57.83
79453;BME280;68899;52.116;5.404;2023-08-17T08:17:01;102156.84;;;22.75;57.60
79453;BME280;68899;52.116;5.404;2023-08-17T08:19:28;102158.84;;;22.73;57.74
79453;BME280;68899;52.116;5.404;2023-08-17T08:21:54;102165.03;;;22.74;57.75
79453;BME280;68899;52.116;5.404;2023-08-17T08:24:21;102171.25;;;22.74;58.17
79453;BME280;68899;52.116;5.404;2023-08-17T08:27:03;102158.84;;;22.73;57.80
79453;BME280;68899;52.116;5.404;2023-08-17T08:29:29;102158.69;;;22.75;57.81
79453;BME280;68899;52.116;5.404;2023-08-17T08:31:56;102156.84;;;22.75;57.80
79453;BME280;68899;52.116;5.404;2023-08-17T08:34:24;102162.09;;;22.77;57.94
79453;BME280;68899;52.116;5.404;2023-08-17T08:36:50;102165.47;;;22.79;57.77
79453;BME280;68899;52.116;5.404;2023-08-17T08:39:17;102159.81;;;22.82;58.00
79453;BME280;68899;52.116;5.404;2023-08-17T08:41:44;102166.19;;;22.81;57.77
79453;BME280;68899;52.116;5.404;2023-08-17T08:44:10;102163.50;;;22.81;58.11
79453;BME280;68899;52.116;5.404;2023-08-17T08:46:40;102160.66;;;22.82;57.72
79453;BME280;68899;52.116;5.404;2023-08-17T08:49:10;102156.13;;;22.83;57.79
79453;BME280;68899;52.116;5.404;2023-08-17T08:51:44;102154.22;;;22.85;57.86
79453;BME280;68899;52.116;5.404;2023-08-17T08:54:13;102153.06;;;22.88;57.83
79453;BME280;68899;52.116;5.404;2023-08-17T08:56:42;102154.63;;;22.90;57.67
79453;BME280;68899;52.116;5.404;2023-08-17T08:59:14;102150.09;;;22.91;57.69
79453;BME280;68899;52.116;5.404;2023-08-17T09:01:41;102151.78;;;22.92;57.78
79453;BME280;68899;52.116;5.404;2023-08-17T09:04:08;102147.41;;;22.91;57.84
79453;BME280;68899;52.116;5.404;2023-08-17T09:06:35;102149.25;;;22.90;57.56
79453;BME280;68899;52.116;5.404;2023-08-17T09:09:02;102153.06;;;22.88;57.37
79453;BME280;68899;52.116;5.404;2023-08-17T09:11:29;102146.88;;;22.87;57.31
79453;BME280;68899;52.116;5.404;2023-08-17T09:13:56;102148.25;;;22.81;57.06
79453;BME280;68899;52.116;5.404;2023-08-17T09:16:23;102141.03;;;22.82;57.16
79453;BME280;68899;52.116;5.404;2023-08-17T09:18:52;102137.66;;;22.80;57.27
79453;BME280;68899;52.116;5.404;2023-08-17T09:21:23;102134.81;;;22.81;57.23
79453;BME280;68899;52.116;5.404;2023-08-17T09:23:55;102137.50;;;22.81;57.22
79453;BME280;68899;52.116;5.404;2023-08-17T09:26:30;102135.13;;;22.78;57.58
79453;BME280;68899;52.116;5.404;2023-08-17T09:28:57;102131.59;;;22.78;57.54
79453;BME280;68899;52.116;5.404;2023-08-17T09:31:25;102134.13;;;22.79;57.27
79453;BME280;68899;52.116;5.404;2023-08-17T09:33:52;102124.53;;;22.77;57.73
79453;BME280;68899;52.116;5.404;2023-08-17T09:36:21;102122.69;;;22.77;57.54
79453;BME280;68899;52.116;5.404;2023-08-17T09:38:51;102127.94;;;22.89;57.90
79453;BME280;68899;52.116;5.404;2023-08-17T09:41:18;102120.16;;;22.95;57.34
79453;BME280;68899;52.116;5.404;2023-08-17T09:43:48;102119.56;;;23.01;57.34
79453;BME280;68899;52.116;5.404;2023-08-17T09:46:14;102116.00;;;23.10;57.66
79453;BME280;68899;52.116;5.404;2023-08-17T09:48:43;102121.06;;;23.23;57.02
79453;BME280;68899;52.116;5.404;2023-08-17T09:51:15;102117.94;;;23.28;56.99
79453;BME280;68899;52.116;5.404;2023-08-17T09:53:42;102115.97;;;23.30;56.86
79453;BME280;68899;52.116;5.404;2023-08-17T09:56:09;102117.66;;;23.31;56.82
79453;BME280;68899;52.116;5.404;2023-08-17T09:58:43;102121.03;;;23.33;57.03
79453;BME280;68899;52.116;5.404;2023-08-17T10:01:10;102116.50;;;23.33;56.98
79453;BME280;68899;52.116;5.404;2023-08-17T10:03:39;102119.19;;;23.33;56.85
79453;BME280;68899;52.116;5.404;2023-08-17T10:06:10;102109.31;;;23.34;56.82
79453;BME280;68899;52.116;5.404;2023-08-17T10:08:47;102108.31;;;23.35;57.02
79453;BME280;68899;52.116;5.404;2023-08-17T10:11:16;102109.03;;;23.37;56.92
79453;BME280;68899;52.116;5.404;2023-08-17T10:13:52;102101.66;;;23.39;57.08
79453;BME280;68899;52.116;5.404;2023-08-17T10:16:23;102097.97;;;23.40;56.68
79453;BME280;68899;52.116;5.404;2023-08-17T10:19:01;102095.84;;;23.44;56.78
79453;BME280;68899;52.116;5.404;2023-08-17T10:23:58;102108.00;;;23.48;56.39
79453;BME280;68899;52.116;5.404;2023-08-17T10:26:25;102103.63;;;23.47;56.45
79453;BME280;68899;52.116;5.404;2023-08-17T10:28:53;102096.56;;;23.46;56.87
79453;BME280;68899;52.116;5.404;2023-08-17T10:31:26;102097.25;;;23.48;56.73
79453;BME280;68899;52.116;5.404;2023-08-17T10:33:53;102090.72;;;23.50;56.65
79453;BME280;68899;52.116;5.404;2023-08-17T10:36:20;102094.94;;;23.53;56.87
79453;BME280;68899;52.116;5.404;2023-08-17T10:41:55;102096.06;;;23.60;56.91
79453;BME280;68899;52.116;5.404;2023-08-17T10:44:39;102097.03;;;23.59;56.99
79453;BME280;68899;52.116;5.404;2023-08-17T10:47:29;102099.59;;;23.60;57.00
79453;BME280;68899;52.116;5.404;2023-08-17T10:52:35;102102.72;;;23.65;56.92
79453;BME280;68899;52.116;5.404;2023-08-17T10:55:08;102099.03;;;23.66;57.01
79453;BME280;68899;52.116;5.404;2023-08-17T10:57:40;102101.56;;;23.68;56.94
79453;BME280;68899;52.116;5.404;2023-08-17T11:02:59;102087.69;;;23.73;56.94
79453;BME280;68899;52.116;5.404;2023-08-17T11:05:43;102088.53;;;23.73;57.27
79453;BME280;68899;52.116;5.404;2023-08-17T11:08:20;102083.28;;;23.72;57.00
79453;BME280;68899;52.116;5.404;2023-08-17T11:10:48;102076.94;;;23.73;57.14
79453;BME280;68899;52.116;5.404;2023-08-17T11:13:23;102084.84;;;23.74;56.97
79453;BME280;68899;52.116;5.404;2023-08-17T11:15:50;102091.75;;;23.77;57.38
79453;BME280;68899;52.116;5.404;2023-08-17T11:18:16;102090.75;;;23.78;57.41
79453;BME280;68899;52.116;5.404;2023-08-17T11:20:43;102094.13;;;23.80;57.56
79453;BME280;68899;52.116;5.404;2023-08-17T11:23:10;102086.78;;;23.82;57.27
79453;BME280;68899;52.116;5.404;2023-08-17T11:25:37;102089.31;;;23.83;57.48
79453;BME280;68899;52.116;5.404;2023-08-17T11:28:06;102080.41;;;23.83;57.40
79453;BME280;68899;52.116;5.404;2023-08-17T11:30:33;102085.47;;;23.86;57.39
79453;BME280;68899;52.116;5.404;2023-08-17T11:33:01;102090.00;;;23.85;57.48
79453;BME280;68899;52.116;5.404;2023-08-17T11:35:28;102096.38;;;23.84;57.08
79453;BME280;68899;52.116;5.404;2023-08-17T11:37:55;102091.84;;;23.85;57.37
79453;BME280;68899;52.116;5.404;2023-08-17T11:40:21;102093.00;;;23.82;57.36
79453;BME280;68899;52.116;5.404;2023-08-17T11:42:48;102093.00;;;23.82;57.18
79453;BME280;68899;52.116;5.404;2023-08-17T11:45:15;102095.13;;;23.79;57.19
79453;BME280;68899;52.116;5.404;2023-08-17T11:47:42;102083.84;;;23.75;56.79
79453;BME280;68899;52.116;5.404;2023-08-17T11:50:11;102084.84;;;23.74;57.09
79453;BME280;68899;52.116;5.404;2023-08-17T11:52:47;102076.47;;;23.77;57.00
79453;BME280;68899;52.116;5.404;2023-08-17T11:55:16;102080.84;;;23.78;56.96
79453;BME280;68899;52.116;5.404;2023-08-17T11:57:47;102076.63;;;23.76;57.10
79453;BME280;68899;52.116;5.404;2023-08-17T12:00:18;102077.63;;;23.75;56.79
79453;BME280;68899;52.116;5.404;2023-08-17T12:02:47;102076.78;;;23.74;57.11
79453;BME280;68899;52.116;5.404;2023-08-17T12:05:22;102082.59;;;23.69;57.22
79453;BME280;68899;52.116;5.404;2023-08-17T12:07:50;102086.44;;;23.67;57.04
79453;BME280;68899;52.116;5.404;2023-08-17T12:10:19;102082.91;;;23.66;56.85
79453;BME280;68899;52.116;5.404;2023-08-17T12:12:48;102078.81;;;23.62;57.32
79453;BME280;68899;52.116;5.404;2023-08-17T12:15:16;102085.19;;;23.61;57.31
79453;BME280;68899;52.116;5.404;2023-08-17T12:17:47;102079.13;;;23.59;57.20
79453;BME280;68899;52.116;5.404;2023-08-17T12:20:20;102078.53;;;23.56;57.27
79453;BME280;68899;52.116;5.404;2023-08-17T12:22:47;102083.34;;;23.52;57.47
79453;BME280;68899;52.116;5.404;2023-08-17T12:25:14;102078.97;;;23.51;57.68
79453;BME280;68899;52.116;5.404;2023-08-17T12:27:41;102079.81;;;23.52;57.33
79453;BME280;68899;52.116;5.404;2023-08-17T12:30:29;102077.28;;;23.50;57.63
79453;BME280;68899;52.116;5.404;2023-08-17T12:32:58;102078.59;;;23.46;57.80
79453;BME280;68899;52.116;5.404;2023-08-17T12:35:25;102073.22;;;23.46;57.87
79453;BME280;68899;52.116;5.404;2023-08-17T12:37:53;102080.44;;;23.46;57.81
79453;BME280;68899;52.116;5.404;2023-08-17T12:40:21;102077.59;;;23.47;57.50
79453;BME280;68899;52.116;5.404;2023-08-17T12:42:48;102081.41;;;23.45;57.60
79453;BME280;68899;52.116;5.404;2023-08-17T12:45:15;102084.56;;;23.40;57.89
79453;BME280;68899;52.116;5.404;2023-08-17T12:47:42;102083.88;;;23.38;57.45
79453;BME280;68899;52.116;5.404;2023-08-17T12:50:09;102086.66;;;23.36;57.94
79453;BME280;68899;52.116;5.404;2023-08-17T12:52:35;102082.44;;;23.34;58.04
79453;BME280;68899;52.116;5.404;2023-08-17T12:55:02;102093.19;;;23.34;57.73
79453;BME280;68899;52.116;5.404;2023-08-17T12:57:29;102087.13;;;23.32;57.77
79453;BME280;68899;52.116;5.404;2023-08-17T12:59:55;102089.97;;;23.30;58.07
79453;BME280;68899;52.116;5.404;2023-08-17T13:02:23;102088.97;;;23.31;58.11
79453;BME280;68899;52.116;5.404;2023-08-17T13:04:50;102084.88;;;23.27;58.10